Time;durP1;ratioP1;P1;durP2;ratioP2;P2;SDS_P1;SDS_P2;PMS_P1;PMS_P2;Temp;Humidity;BMP_temperature;BMP_pressure;BME280_temperature;BME280_humidity;BME280_pressure;Samples;Min_cycle;Max_cycle;Signal;HPM_P1;HPM_P2
2021/03/26 00:01:24;;;;;;;49.40;29.47;;;9.90;98.30;;;;;;5174715;23;20457;-83
2021/03/26 00:03:29;;;;;;;49.90;30.57;;;9.80;98.30;;;;;;5174105;22;20478;-83
2021/03/26 00:05:31;;;;;;;50.40;30.23;;;9.80;98.30;;;;;;5173729;23;20454;-83
2021/03/26 00:07:32;;;;;;;49.20;29.37;;;9.80;98.30;;;;;;5166216;23;20470;-82
2021/03/26 00:09:36;;;;;;;48.00;30.37;;;9.80;98.30;;;;;;5172829;23;20447;-83
2021/03/26 00:11:39;;;;;;;48.13;30.50;;;9.80;98.30;;;;;;5173927;23;20443;-83
2021/03/26 00:13:41;;;;;;;53.37;31.73;;;9.70;98.30;;;;;;5172575;22;20456;-83
2021/03/26 00:15:44;;;;;;;52.57;30.60;;;9.70;98.30;;;;;;5166016;23;20517;-83
2021/03/26 00:17:46;;;;;;;53.17;31.43;;;9.70;98.30;;;;;;5173341;23;20454;-83
2021/03/26 00:19:48;;;;;;;50.53;29.47;;;9.60;98.30;;;;;;5165833;23;20590;-83
2021/03/26 00:21:50;;;;;;;57.70;33.07;;;9.60;98.30;;;;;;5174348;23;20452;-83
2021/03/26 00:23:52;;;;;;;54.23;29.80;;;9.60;98.30;;;;;;5174239;22;20423;-83
2021/03/26 00:25:55;;;;;;;48.83;30.23;;;9.50;98.30;;;;;;5174486;23;20423;-83
2021/03/26 00:27:57;;;;;;;52.10;31.73;;;9.50;98.30;;;;;;5165508;23;20456;-83
2021/03/26 00:29:59;;;;;;;51.60;31.00;;;9.50;98.30;;;;;;5173483;23;20715;-83
2021/03/26 00:32:01;;;;;;;50.60;30.20;;;9.40;98.30;;;;;;5174247;23;20966;-83
2021/03/26 00:34:03;;;;;;;55.73;32.50;;;9.40;98.30;;;;;;5165840;22;20514;-83
2021/03/26 00:36:06;;;;;;;55.03;32.00;;;9.40;98.30;;;;;;5104735;23;20467;-83
2021/03/26 00:38:08;;;;;;;57.90;31.10;;;9.30;98.30;;;;;;5066245;23;20582;-83
2021/03/26 00:40:13;;;;;;;54.93;30.20;;;9.30;98.30;;;;;;5072346;23;20538;-83
2021/03/26 00:42:16;;;;;;;56.43;30.60;;;9.30;98.30;;;;;;5073645;23;20463;-84
2021/03/26 00:44:18;;;;;;;50.43;31.20;;;9.20;98.30;;;;;;5073765;23;20458;-83
2021/03/26 00:46:22;;;;;;;54.13;30.90;;;9.20;98.30;;;;;;5072543;23;20423;-83
2021/03/26 00:48:25;;;;;;;54.67;31.87;;;9.10;98.30;;;;;;5073327;23;20433;-83
2021/03/26 00:50:33;;;;;;;56.60;31.20;;;9.10;98.30;;;;;;5072405;23;20929;-83
2021/03/26 00:52:36;;;;;;;50.10;29.97;;;9.00;98.30;;;;;;5065066;23;20486;-83
2021/03/26 00:54:38;;;;;;;60.20;30.97;;;9.10;98.30;;;;;;5073229;23;20884;-83
2021/03/26 00:56:41;;;;;;;47.03;28.77;;;9.10;98.30;;;;;;5073092;23;20452;-83
2021/03/26 00:58:44;;;;;;;55.23;30.83;;;9.00;98.30;;;;;;5073650;23;20929;-83
2021/03/26 01:00:53;;;;;;;55.37;32.40;;;9.00;98.30;;;;;;5074268;23;20452;-83
2021/03/26 01:02:55;;;;;;;56.73;30.20;;;8.90;98.30;;;;;;5067507;23;20459;-83
2021/03/26 01:04:57;;;;;;;46.07;27.40;;;8.90;98.30;;;;;;5075830;23;20452;-82
2021/03/26 01:06:59;;;;;;;53.60;29.40;;;8.90;98.30;;;;;;5067652;23;20456;-83
2021/03/26 01:09:02;;;;;;;56.73;29.80;;;8.80;98.30;;;;;;5066881;23;20535;-82
2021/03/26 01:11:08;;;;;;;58.83;31.07;;;8.80;98.30;;;;;;5074870;23;21009;-83
2021/03/26 01:13:11;;;;;;;56.53;29.90;;;8.80;98.30;;;;;;5073858;23;20454;-82
2021/03/26 01:15:17;;;;;;;53.60;28.53;;;8.80;98.30;;;;;;5064940;23;20458;-83
2021/03/26 01:17:19;;;;;;;50.77;28.70;;;8.80;98.30;;;;;;5077255;23;20422;-83
2021/03/26 01:19:23;;;;;;;50.57;27.53;;;8.70;98.30;;;;;;5076980;23;20458;-83
2021/03/26 01:21:27;;;;;;;46.80;27.07;;;8.70;98.30;;;;;;5067755;23;20441;-83
2021/03/26 01:23:30;;;;;;;53.47;27.80;;;8.70;98.30;;;;;;5074616;23;20444;-82
2021/03/26 01:25:35;;;;;;;54.23;27.07;;;8.70;98.30;;;;;;5083509;23;20484;-82
2021/03/26 01:27:38;;;;;;;50.93;26.40;;;8.70;98.30;;;;;;5073859;23;20445;-82
2021/03/26 01:29:40;;;;;;;48.83;28.00;;;8.60;98.30;;;;;;5074408;23;20454;-82
2021/03/26 01:31:43;;;;;;;52.93;29.30;;;8.60;98.30;;;;;;5074676;23;20867;-82
2021/03/26 01:33:46;;;;;;;47.47;26.53;;;8.60;98.30;;;;;;5065514;23;20452;-83
2021/03/26 01:35:48;;;;;;;54.67;29.53;;;8.60;98.30;;;;;;5065082;23;20463;-83
2021/03/26 01:37:51;;;;;;;52.20;28.43;;;8.60;98.30;;;;;;5073128;23;20505;-83
2021/03/26 01:39:53;;;;;;;46.70;30.00;;;8.60;98.30;;;;;;5072489;23;20572;-82
2021/03/26 01:41:55;;;;;;;49.80;28.00;;;8.60;98.30;;;;;;5072579;23;20463;-83
2021/03/26 01:43:57;;;;;;;51.17;29.07;;;8.50;98.30;;;;;;5064346;23;20958;-83
2021/03/26 01:45:59;;;;;;;48.10;27.60;;;8.50;98.30;;;;;;5072182;23;21035;-82
2021/03/26 01:48:03;;;;;;;49.23;29.20;;;8.40;98.30;;;;;;5072308;23;20455;-83
2021/03/26 01:50:09;;;;;;;50.47;28.67;;;8.40;98.30;;;;;;5071846;23;20511;-83
2021/03/26 01:52:11;;;;;;;50.37;28.67;;;8.30;98.30;;;;;;5071765;23;21218;-83
2021/03/26 01:54:16;;;;;;;51.90;27.53;;;8.30;98.30;;;;;;5072420;23;20426;-82
2021/03/26 01:56:18;;;;;;;51.83;27.00;;;8.30;98.30;;;;;;5072591;23;20461;-83
2021/03/26 01:58:22;;;;;;;53.03;30.37;;;8.20;98.30;;;;;;5073377;23;20472;-84
2021/03/26 02:00:29;;;;;;;50.97;28.97;;;8.20;98.30;;;;;;5072441;23;20477;-83
2021/03/26 02:02:31;;;;;;;59.57;29.97;;;8.20;98.30;;;;;;5070953;23;20456;-83
2021/03/26 02:04:43;;;;;;;60.57;29.60;;;8.20;98.30;;;;;;5073650;23;20430;-84
2021/03/26 02:06:51;;;;;;;51.13;28.70;;;8.20;98.30;;;;;;5065934;23;20742;-83
2021/03/26 02:09:04;;;;;;;49.20;28.00;;;8.10;98.30;;;;;;5063848;23;20544;-84
2021/03/26 02:11:24;;;;;;;55.83;29.27;;;8.10;98.30;;;;;;5065071;23;20495;-82
2021/03/26 02:13:41;;;;;;;51.03;28.67;;;8.10;98.30;;;;;;5062119;23;20456;-83
2021/03/26 02:15:46;;;;;;;54.87;29.07;;;8.10;98.30;;;;;;5072510;23;20522;-83
2021/03/26 02:17:49;;;;;;;46.53;27.50;;;8.10;98.30;;;;;;5071821;23;20452;-83
2021/03/26 02:19:54;;;;;;;49.67;28.27;;;8.10;98.30;;;;;;5071525;23;20430;-83
2021/03/26 02:21:57;;;;;;;49.27;27.50;;;8.10;98.30;;;;;;5072579;23;20478;-83
2021/03/26 02:24:03;;;;;;;53.10;29.47;;;8.10;98.30;;;;;;5072360;23;20772;-83
2021/03/26 02:26:11;;;;;;;46.70;26.00;;;8.10;98.30;;;;;;5071736;23;21026;-83
2021/03/26 02:28:13;;;;;;;44.53;26.43;;;8.10;98.30;;;;;;5070970;23;20456;-84
2021/03/26 02:30:28;;;;;;;50.40;27.60;;;8.10;98.30;;;;;;5071640;23;20448;-84
2021/03/26 02:32:32;;;;;;;49.83;27.90;;;8.20;98.30;;;;;;5064091;23;20510;-83
2021/03/26 02:35:07;;;;;;;43.50;26.03;;;8.10;98.30;;;;;;5071768;23;20497;-83
2021/03/26 02:37:11;;;;;;;41.60;25.30;;;8.10;98.30;;;;;;5072193;23;20423;-83
2021/03/26 02:39:23;;;;;;;47.37;26.60;;;8.10;98.30;;;;;;5071485;23;20431;-83
2021/03/26 02:41:28;;;;;;;44.33;27.40;;;8.10;98.30;;;;;;5071447;23;20532;-83
2021/03/26 02:43:39;;;;;;;42.73;26.00;;;8.10;98.30;;;;;;5071822;23;20433;-83
2021/03/26 02:45:48;;;;;;;38.87;25.07;;;8.10;98.30;;;;;;5071483;23;20433;-83
2021/03/26 02:47:55;;;;;;;48.50;25.73;;;8.10;98.30;;;;;;5065101;23;20505;-83
2021/03/26 02:50:02;;;;;;;41.10;25.97;;;8.10;98.30;;;;;;5073321;23;20456;-84
2021/03/26 02:52:11;;;;;;;50.70;25.80;;;8.10;98.30;;;;;;5073674;23;20428;-83
2021/03/26 02:54:22;;;;;;;50.13;27.57;;;8.10;98.30;;;;;;5072246;23;20441;-84
2021/03/26 02:56:28;;;;;;;39.67;25.23;;;8.10;98.30;;;;;;5073193;23;20939;-83
2021/03/26 02:58:33;;;;;;;44.43;24.97;;;7.90;98.30;;;;;;5071558;23;20790;-83
2021/03/26 03:00:54;;;;;;;39.63;24.60;;;7.90;98.30;;;;;;5072418;23;20471;-84
2021/03/26 03:02:58;;;;;;;45.30;26.07;;;7.90;98.30;;;;;;5064548;23;21005;-83
2021/03/26 03:05:07;;;;;;;41.17;24.10;;;7.90;98.30;;;;;;5071745;23;20430;-83
2021/03/26 03:07:13;;;;;;;35.37;23.13;;;7.90;98.30;;;;;;5071899;23;20480;-83
2021/03/26 03:09:15;;;;;;;42.13;24.40;;;7.80;98.30;;;;;;5071526;23;20430;-82
2021/03/26 03:11:23;;;;;;;44.40;25.83;;;7.80;98.30;;;;;;5064121;23;20431;-83
2021/03/26 03:13:31;;;;;;;46.87;25.20;;;7.80;98.30;;;;;;5071502;23;20429;-83
2021/03/26 03:15:41;;;;;;;53.93;25.50;;;7.80;98.30;;;;;;5063265;23;20470;-83
2021/03/26 03:17:54;;;;;;;42.07;23.30;;;7.80;98.30;;;;;;5071074;23;20472;-83
2021/03/26 03:20:03;;;;;;;45.10;26.60;;;7.80;98.30;;;;;;5071081;23;20430;-83
2021/03/26 03:22:09;;;;;;;42.10;24.47;;;7.80;98.30;;;;;;5072181;23;20486;-83
2021/03/26 03:24:13;;;;;;;43.80;24.63;;;7.80;98.30;;;;;;5071603;23;20419;-83
2021/03/26 03:26:23;;;;;;;42.50;24.23;;;7.80;98.30;;;;;;5071881;23;20750;-82
2021/03/26 03:28:32;;;;;;;41.63;23.53;;;7.80;98.30;;;;;;5071813;23;20437;-83
2021/03/26 03:30:41;;;;;;;47.90;25.80;;;7.70;98.30;;;;;;5071768;23;20505;-83
2021/03/26 03:32:53;;;;;;;41.93;24.97;;;7.60;98.30;;;;;;5071973;23;20511;-83
2021/03/26 03:35:06;;;;;;;43.50;24.33;;;7.60;98.30;;;;;;5072016;23;20426;-82
2021/03/26 03:37:17;;;;;;;42.20;26.00;;;7.60;98.30;;;;;;5071970;23;20530;-83
2021/03/26 03:39:25;;;;;;;46.07;26.13;;;7.50;98.30;;;;;;5070931;23;20516;-83
2021/03/26 03:41:35;;;;;;;42.53;27.40;;;7.50;98.30;;;;;;5072768;23;20448;-83
2021/03/26 03:43:45;;;;;;;45.97;27.60;;;7.40;98.30;;;;;;5073923;23;20446;-83
2021/03/26 03:45:53;;;;;;;42.63;24.87;;;7.40;98.30;;;;;;5072659;23;20510;-83
2021/03/26 03:48:07;;;;;;;43.83;26.20;;;7.30;98.30;;;;;;5073192;23;20484;-83
2021/03/26 03:50:16;;;;;;;45.00;24.90;;;7.30;98.30;;;;;;5074415;23;20447;-82
2021/03/26 03:52:25;;;;;;;45.20;26.30;;;7.30;98.30;;;;;;5074901;23;20458;-82
2021/03/26 03:54:32;;;;;;;46.37;27.07;;;7.40;98.30;;;;;;5067063;23;20468;-82
2021/03/26 03:56:41;;;;;;;47.23;26.97;;;7.30;98.30;;;;;;5075491;23;20474;-82
2021/03/26 03:58:49;;;;;;;54.10;27.63;;;7.40;98.30;;;;;;5066728;23;20762;-82
2021/03/26 04:00:59;;;;;;;50.43;27.40;;;7.40;98.30;;;;;;5067476;23;20942;-82
2021/03/26 04:03:09;;;;;;;45.77;26.33;;;7.40;98.30;;;;;;5074989;23;21011;-82
2021/03/26 04:05:16;;;;;;;51.63;27.60;;;7.40;98.30;;;;;;5067165;23;20484;-82
2021/03/26 04:07:22;;;;;;;43.10;25.70;;;7.20;98.30;;;;;;5068367;23;20821;-82
2021/03/26 04:09:34;;;;;;;56.40;28.97;;;7.20;98.30;;;;;;5076159;23;20455;-82
2021/03/26 04:11:44;;;;;;;48.97;28.00;;;7.20;98.30;;;;;;5074599;23;20433;-83
2021/03/26 04:13:49;;;;;;;49.13;26.60;;;7.10;98.30;;;;;;5074159;23;20456;-82
2021/03/26 04:15:55;;;;;;;54.53;28.00;;;7.20;98.30;;;;;;5074907;23;20451;-83
2021/03/26 04:18:03;;;;;;;49.97;27.67;;;7.20;98.30;;;;;;5074282;23;20778;-83
2021/03/26 04:20:08;;;;;;;53.47;28.87;;;7.10;98.30;;;;;;5073333;23;20437;-83
2021/03/26 04:22:14;;;;;;;47.20;28.60;;;7.10;98.30;;;;;;5064619;23;20789;-83
2021/03/26 04:24:20;;;;;;;43.30;26.13;;;7.10;98.30;;;;;;5065551;23;20521;-83
2021/03/26 04:26:36;;;;;;;47.40;27.40;;;7.10;98.30;;;;;;5064416;23;20482;-83
2021/03/26 04:28:56;;;;;;;50.47;29.53;;;7.00;98.30;;;;;;5072356;23;21011;-83
2021/03/26 04:31:04;;;;;;;47.37;27.30;;;6.90;98.30;;;;;;5072611;23;20426;-84
2021/03/26 04:33:06;;;;;;;49.33;27.83;;;7.00;98.30;;;;;;5071713;23;20985;-83
2021/03/26 04:35:11;;;;;;;48.67;27.23;;;7.00;98.30;;;;;;5072715;23;20463;-83
2021/03/26 04:37:19;;;;;;;52.57;29.83;;;7.00;98.30;;;;;;5071089;23;20451;-83
2021/03/26 04:39:27;;;;;;;50.40;30.37;;;6.90;98.30;;;;;;5069951;23;20518;-83
2021/03/26 04:41:34;;;;;;;53.77;29.50;;;7.00;98.30;;;;;;5077244;23;21109;-84
2021/03/26 04:43:43;;;;;;;53.80;29.00;;;7.00;98.30;;;;;;5085598;23;20455;-84
2021/03/26 04:45:52;;;;;;;62.73;30.80;;;7.00;98.30;;;;;;5084579;23;20427;-83
2021/03/26 04:48:03;;;;;;;53.63;28.60;;;7.00;98.30;;;;;;5083067;23;20430;-84
2021/03/26 04:50:13;;;;;;;54.57;28.33;;;6.90;98.30;;;;;;5075517;23;20426;-83
2021/03/26 04:52:22;;;;;;;52.30;28.70;;;7.00;98.30;;;;;;5071898;23;20457;-83
2021/03/26 04:54:31;;;;;;;59.03;29.83;;;7.00;98.30;;;;;;5074005;23;20478;-84
2021/03/26 04:56:39;;;;;;;57.80;29.70;;;7.10;98.30;;;;;;5078785;23;20451;-82
2021/03/26 04:58:43;;;;;;;59.80;30.77;;;7.10;98.30;;;;;;5079603;23;20429;-83
2021/03/26 05:00:59;;;;;;;58.17;30.60;;;7.10;98.30;;;;;;5078264;23;20538;-83
2021/03/26 05:03:06;;;;;;;55.03;30.10;;;7.00;98.30;;;;;;5078733;23;20760;-83
2021/03/26 05:05:11;;;;;;;58.90;30.47;;;7.00;98.30;;;;;;5078346;23;20474;-83
2021/03/26 05:07:15;;;;;;;62.00;30.00;;;7.00;98.30;;;;;;5077763;23;20434;-83
2021/03/26 05:09:20;;;;;;;60.53;33.07;;;7.00;98.30;;;;;;5070834;23;20521;-83
2021/03/26 05:11:25;;;;;;;57.87;31.93;;;6.90;98.30;;;;;;5079453;23;20431;-83
2021/03/26 05:13:31;;;;;;;54.40;30.50;;;6.90;98.30;;;;;;5078281;23;20452;-82
2021/03/26 05:15:41;;;;;;;56.13;31.80;;;6.80;98.30;;;;;;5078342;23;20462;-83
2021/03/26 05:17:49;;;;;;;62.20;32.73;;;6.80;98.30;;;;;;5078047;23;20585;-83
2021/03/26 05:19:58;;;;;;;57.97;30.13;;;6.80;98.30;;;;;;5077090;23;20461;-84
2021/03/26 05:22:13;;;;;;;54.67;31.13;;;6.80;98.30;;;;;;5071511;23;20455;-84
2021/03/26 05:24:20;;;;;;;61.53;33.17;;;6.80;98.30;;;;;;5063895;23;20458;-83
2021/03/26 05:26:23;;;;;;;60.30;31.17;;;6.90;98.30;;;;;;5073185;23;20455;-83
2021/03/26 05:28:28;;;;;;;56.80;30.40;;;6.90;98.30;;;;;;5074575;23;20795;-83
2021/03/26 05:30:34;;;;;;;50.20;29.63;;;6.80;98.30;;;;;;5066457;23;20456;-83
2021/03/26 05:32:54;;;;;;;57.33;32.03;;;6.90;98.30;;;;;;5077721;23;20425;-83
2021/03/26 05:35:02;;;;;;;55.13;30.30;;;7.00;98.30;;;;;;5070994;23;20468;-83
2021/03/26 05:37:16;;;;;;;58.53;31.03;;;7.00;98.30;;;;;;5071095;23;20462;-83
2021/03/26 05:39:23;;;;;;;61.10;30.13;;;7.00;98.30;;;;;;5071096;23;20456;-83
2021/03/26 05:41:41;;;;;;;59.80;29.77;;;7.00;98.30;;;;;;5079805;23;20465;-82
2021/03/26 05:44:13;;;;;;;58.60;31.63;;;6.90;98.30;;;;;;5079577;23;20437;-83
2021/03/26 05:46:27;;;;;;;58.13;30.33;;;6.90;98.30;;;;;;5070036;23;20456;-83
2021/03/26 05:48:45;;;;;;;59.23;30.00;;;7.00;98.30;;;;;;5077634;23;20437;-82
2021/03/26 05:51:15;;;;;;;51.87;29.70;;;6.90;98.30;;;;;;5069010;23;20463;-83
2021/03/26 05:53:40;;;;;;;54.47;30.90;;;6.80;98.30;;;;;;5069336;23;20531;-83
2021/03/26 05:55:50;;;;;;;49.40;28.10;;;6.80;98.30;;;;;;5077579;23;20467;-82
2021/03/26 05:58:03;;;;;;;58.70;33.30;;;6.80;98.30;;;;;;5070225;23;20479;-83
2021/03/26 06:00:54;;;;;;;60.70;33.53;;;6.90;98.30;;;;;;5072485;23;20452;-83
2021/03/26 06:03:56;;;;;;;67.43;31.67;;;6.80;98.30;;;;;;4981214;23;21219;-83
2021/03/26 06:06:31;;;;;;;60.90;30.43;;;6.80;98.30;;;;;;5027787;23;20450;-82
2021/03/26 06:09:02;;;;;;;56.63;31.10;;;6.90;98.30;;;;;;5083764;23;20895;-82
2021/03/26 06:11:18;;;;;;;55.50;32.23;;;6.80;98.30;;;;;;5083857;23;20422;-83
2021/03/26 06:14:02;;;;;;;54.03;28.83;;;6.90;98.30;;;;;;5072253;23;20450;-83
2021/03/26 06:16:36;;;;;;;57.83;32.40;;;7.00;98.30;;;;;;5057375;23;20451;-83
2021/03/26 06:19:05;;;;;;;53.73;30.67;;;7.10;98.30;;;;;;5074281;23;20472;-82
2021/03/26 06:21:23;;;;;;;56.60;31.27;;;7.20;98.30;;;;;;5047426;23;20543;-83
2021/03/26 06:23:48;;;;;;;55.80;28.40;;;7.30;98.30;;;;;;5074827;23;20582;-83
2021/03/26 06:26:02;;;;;;;55.27;31.40;;;7.30;98.30;;;;;;5018141;23;20430;-84
2021/03/26 06:28:15;;;;;;;60.50;33.10;;;7.40;98.30;;;;;;5074238;23;20447;-83
2021/03/26 06:30:26;;;;;;;60.60;31.23;;;7.50;98.30;;;;;;5074379;23;20444;-83
2021/03/26 06:33:09;;;;;;;61.67;31.00;;;7.50;98.30;;;;;;5074854;23;20414;-83
2021/03/26 06:35:40;;;;;;;57.60;31.60;;;7.60;98.30;;;;;;5066388;23;20523;-84
2021/03/26 06:38:08;;;;;;;58.60;33.90;;;7.70;98.30;;;;;;5074925;23;20915;-82
2021/03/26 06:40:22;;;;;;;58.40;30.13;;;7.80;98.30;;;;;;5074643;23;21081;-82
2021/03/26 06:43:00;;;;;;;54.40;30.73;;;7.90;98.30;;;;;;5067445;23;20466;-83
2021/03/26 06:45:33;;;;;;;64.83;32.10;;;7.90;98.30;;;;;;5064032;23;20452;-83
2021/03/26 06:47:50;;;;;;;51.00;31.13;;;8.00;98.30;;;;;;5065543;23;20928;-83
2021/03/26 06:50:01;;;;;;;54.73;29.97;;;8.10;98.30;;;;;;5073749;23;20451;-83
2021/03/26 06:52:16;;;;;;;60.70;34.63;;;8.10;98.30;;;;;;5074578;23;20527;-82
2021/03/26 06:54:56;;;;;;;61.60;31.20;;;8.20;98.30;;;;;;5074489;23;20470;-83
2021/03/26 06:57:15;;;;;;;67.87;35.90;;;8.40;98.30;;;;;;5066469;23;20479;-83
2021/03/26 06:59:31;;;;;;;56.00;30.80;;;8.50;98.30;;;;;;5066111;23;20460;-83
2021/03/26 07:01:46;;;;;;;61.03;34.27;;;8.60;98.30;;;;;;5067697;23;20514;-82
2021/03/26 07:04:39;;;;;;;60.07;32.77;;;8.80;98.30;;;;;;5067449;23;20466;-83
2021/03/26 07:07:03;;;;;;;53.57;28.93;;;8.90;98.30;;;;;;5068808;23;20492;-84
2021/03/26 07:09:22;;;;;;;59.53;32.80;;;8.90;98.30;;;;;;5025665;23;20455;-83
2021/03/26 07:11:46;;;;;;;57.87;32.90;;;9.00;98.30;;;;;;5073807;23;20449;-83
2021/03/26 07:14:09;;;;;;;61.40;33.27;;;9.10;98.30;;;;;;5073421;23;20442;-83
2021/03/26 07:16:31;;;;;;;61.97;31.90;;;9.20;98.30;;;;;;5075000;23;20742;-83
2021/03/26 07:18:58;;;;;;;58.63;33.97;;;9.30;98.30;;;;;;5067611;23;20486;-82
2021/03/26 07:21:24;;;;;;;49.47;29.27;;;9.30;98.30;;;;;;5074277;23;20455;-83
2021/03/26 07:24:01;;;;;;;53.40;31.27;;;9.50;98.30;;;;;;5074811;23;20432;-83
2021/03/26 07:26:29;;;;;;;56.97;29.10;;;9.60;98.30;;;;;;5074189;23;20476;-83
2021/03/26 07:28:39;;;;;;;58.80;35.07;;;9.70;98.30;;;;;;5063221;23;20457;-82
2021/03/26 07:30:51;;;;;;;53.33;31.67;;;9.70;98.30;;;;;;5074150;23;20437;-83
2021/03/26 07:33:06;;;;;;;55.57;32.60;;;9.70;98.30;;;;;;5074581;23;20535;-83
2021/03/26 07:35:31;;;;;;;54.30;34.20;;;9.80;98.30;;;;;;5073692;23;20437;-83
2021/03/26 07:37:44;;;;;;;53.10;31.40;;;9.80;98.30;;;;;;5074058;23;20782;-82
2021/03/26 07:39:52;;;;;;;53.37;32.97;;;10.10;98.30;;;;;;5065702;23;20426;-82
2021/03/26 07:42:41;;;;;;;52.67;31.87;;;10.10;98.30;;;;;;5075046;23;20415;-82
2021/03/26 07:45:10;;;;;;;54.90;32.10;;;10.20;98.30;;;;;;5075375;23;20472;-83
2021/03/26 07:47:37;;;;;;;56.23;32.63;;;10.30;98.30;;;;;;5074700;23;20455;-83
2021/03/26 07:50:03;;;;;;;49.50;32.30;;;10.30;98.30;;;;;;5055349;23;20430;-83
2021/03/26 07:52:13;;;;;;;53.43;32.77;;;10.50;98.30;;;;;;5078341;23;20513;-83
2021/03/26 07:54:42;;;;;;;55.63;34.00;;;10.60;98.30;;;;;;5065473;23;20999;-83
2021/03/26 07:57:19;;;;;;;54.23;33.43;;;10.70;98.30;;;;;;5071533;23;20498;-83
2021/03/26 07:59:48;;;;;;;50.00;31.80;;;10.70;98.30;;;;;;5062680;23;20989;-83
2021/03/26 08:02:04;;;;;;;51.50;32.40;;;10.80;98.30;;;;;;5019971;23;20456;-85
2021/03/26 08:04:12;;;;;;;55.80;33.90;;;10.90;98.30;;;;;;5071800;23;20866;-85
2021/03/26 08:06:27;;;;;;;50.57;33.50;;;11.00;98.30;;;;;;5071956;23;20454;-86
2021/03/26 08:08:57;;;;;;;47.40;31.60;;;11.10;98.30;;;;;;5072431;23;20455;-86
2021/03/26 08:11:08;;;;;;;54.10;32.67;;;11.10;98.30;;;;;;5072670;23;20448;-86
2021/03/26 08:13:29;;;;;;;52.53;33.30;;;11.30;98.30;;;;;;5072977;23;20774;-85
2021/03/26 08:15:54;;;;;;;51.87;33.60;;;11.20;98.30;;;;;;5071636;23;20475;-86
2021/03/26 08:18:14;;;;;;;49.87;32.30;;;11.30;98.30;;;;;;5060404;23;20543;-87
2021/03/26 08:20:24;;;;;;;48.73;30.63;;;11.30;98.30;;;;;;5071529;23;20491;-87
2021/03/26 08:22:33;;;;;;;47.03;32.57;;;11.60;98.30;;;;;;5071197;23;20462;-87
2021/03/26 08:25:05;;;;;;;47.50;33.73;;;11.70;98.30;;;;;;5070430;23;20555;-86
2021/03/26 08:27:24;;;;;;;49.17;33.57;;;11.80;98.30;;;;;;5055225;23;20452;-86
2021/03/26 08:29:37;;;;;;;50.60;32.80;;;12.00;98.30;;;;;;5072157;23;20838;-85
2021/03/26 08:32:03;;;;;;;49.33;33.17;;;12.30;98.30;;;;;;5075509;23;20813;-85
2021/03/26 08:34:26;;;;;;;45.80;31.37;;;12.40;98.30;;;;;;5075223;23;20934;-86
2021/03/26 08:36:37;;;;;;;44.90;30.70;;;12.40;98.30;;;;;;5072783;23;20455;-87
2021/03/26 08:39:05;;;;;;;44.70;30.40;;;12.70;98.30;;;;;;5073030;23;20517;-86
2021/03/26 08:41:14;;;;;;;46.30;32.20;;;12.60;98.30;;;;;;5048114;23;20447;-86
2021/03/26 08:43:18;;;;;;;46.50;33.13;;;12.40;98.30;;;;;;5073811;23;20463;-87
2021/03/26 08:45:30;;;;;;;41.60;30.00;;;12.30;98.30;;;;;;5073434;23;20455;-87
2021/03/26 08:47:38;;;;;;;44.37;30.00;;;12.40;98.30;;;;;;5073234;23;20968;-86
2021/03/26 08:49:52;;;;;;;49.80;32.53;;;12.30;98.30;;;;;;5073728;23;20820;-87
2021/03/26 08:52:26;;;;;;;46.13;31.20;;;12.30;98.30;;;;;;5079916;23;20455;-86
2021/03/26 08:54:43;;;;;;;51.00;30.07;;;12.60;98.30;;;;;;5061040;23;20455;-87
2021/03/26 08:56:57;;;;;;;42.30;29.43;;;12.60;98.30;;;;;;5072831;23;20839;-86
2021/03/26 08:59:24;;;;;;;44.13;28.50;;;12.80;98.30;;;;;;5072530;23;20447;-87
2021/03/26 09:02:06;;;;;;;40.70;28.60;;;12.90;98.30;;;;;;5064867;23;20456;-85
2021/03/26 09:04:37;;;;;;;41.97;28.63;;;13.00;98.30;;;;;;5071968;23;20534;-87
2021/03/26 09:06:49;;;;;;;40.10;29.20;;;13.30;98.30;;;;;;5073257;23;20778;-87
2021/03/26 09:09:10;;;;;;;38.03;27.87;;;13.30;98.30;;;;;;5073308;23;20448;-86
2021/03/26 09:11:37;;;;;;;42.43;29.90;;;13.30;98.30;;;;;;5073395;23;20530;-86
2021/03/26 09:13:56;;;;;;;41.40;29.13;;;13.50;98.30;;;;;;5010041;23;20547;-87
2021/03/26 09:16:06;;;;;;;43.03;30.53;;;13.70;98.30;;;;;;5072357;23;20455;-87
2021/03/26 09:18:20;;;;;;;34.47;24.90;;;13.80;98.30;;;;;;5072829;23;20451;-87
2021/03/26 09:20:31;;;;;;;30.40;22.60;;;14.20;98.30;;;;;;5071913;23;20451;-86
2021/03/26 09:23:12;;;;;;;32.63;22.23;;;14.10;98.30;;;;;;5073560;23;20475;-88
2021/03/26 09:25:28;;;;;;;27.87;20.27;;;14.00;98.30;;;;;;5055979;23;20454;-87
2021/03/26 09:27:39;;;;;;;31.90;22.13;;;14.00;97.50;;;;;;5073126;23;21133;-86
2021/03/26 09:29:49;;;;;;;26.73;20.37;;;14.00;97.30;;;;;;5072379;23;20451;-86
2021/03/26 09:31:56;;;;;;;29.67;20.33;;;14.10;96.90;;;;;;5073242;23;20470;-87
2021/03/26 09:34:02;;;;;;;26.83;19.60;;;14.20;96.40;;;;;;5073455;23;20472;-87
2021/03/26 09:36:10;;;;;;;29.07;20.73;;;14.20;96.10;;;;;;5073195;23;20455;-86
2021/03/26 09:38:40;;;;;;;28.90;21.07;;;14.20;95.80;;;;;;5073381;23;20537;-86
2021/03/26 09:41:04;;;;;;;25.80;19.70;;;14.20;95.60;;;;;;5072657;23;20448;-86
2021/03/26 09:43:16;;;;;;;28.10;19.63;;;14.30;95.70;;;;;;5063769;23;20466;-87
2021/03/26 09:45:28;;;;;;;23.80;19.30;;;14.40;94.80;;;;;;5073031;23;20478;-87
2021/03/26 09:47:35;;;;;;;22.13;17.60;;;14.50;94.20;;;;;;5065330;23;20961;-87
2021/03/26 09:49:42;;;;;;;21.23;18.27;;;14.60;94.00;;;;;;5072809;23;20447;-87
2021/03/26 09:51:50;;;;;;;23.40;16.97;;;14.60;93.30;;;;;;5072941;23;20938;-87
2021/03/26 09:53:57;;;;;;;19.87;14.57;;;14.20;92.70;;;;;;5073339;23;20444;-88
2021/03/26 09:56:23;;;;;;;21.03;14.80;;;13.80;94.00;;;;;;5082680;23;20955;-87
2021/03/26 09:58:33;;;;;;;21.30;15.03;;;13.60;94.40;;;;;;5073776;23;20479;-87
2021/03/26 10:00:44;;;;;;;18.40;13.60;;;13.90;94.30;;;;;;5073129;23;20504;-86
2021/03/26 10:03:02;;;;;;;21.10;14.83;;;14.30;93.40;;;;;;5073324;23;20456;-88
2021/03/26 10:05:14;;;;;;;17.27;14.83;;;14.40;92.30;;;;;;5073721;23;20756;-86
2021/03/26 10:07:40;;;;;;;18.40;13.10;;;14.60;91.60;;;;;;5073257;23;20535;-88
2021/03/26 10:09:46;;;;;;;19.40;15.07;;;14.40;90.80;;;;;;5073087;23;20530;-88
2021/03/26 10:12:04;;;;;;;23.00;14.97;;;14.20;91.40;;;;;;5073405;23;20448;-88
2021/03/26 10:14:13;;;;;;;20.90;14.37;;;14.40;92.30;;;;;;5073356;23;20518;-88
2021/03/26 10:16:23;;;;;;;21.60;13.77;;;14.60;92.20;;;;;;5073300;23;20458;-87
2021/03/26 10:18:32;;;;;;;21.17;15.20;;;14.80;91.80;;;;;;5072955;23;20459;-86
2021/03/26 10:20:40;;;;;;;16.77;13.33;;;14.80;91.10;;;;;;5072762;23;20452;-87
2021/03/26 10:22:51;;;;;;;18.37;13.07;;;14.80;90.40;;;;;;5073559;23;21174;-87
2021/03/26 10:25:00;;;;;;;17.83;14.10;;;14.90;90.40;;;;;;5073435;23;20447;-88
2021/03/26 10:27:13;;;;;;;19.83;14.63;;;15.00;90.20;;;;;;5072887;23;20490;-88
2021/03/26 10:29:29;;;;;;;16.23;14.27;;;15.00;90.30;;;;;;5072941;23;20534;-89
2021/03/26 10:31:34;;;;;;;16.57;11.97;;;15.00;89.90;;;;;;5073337;23;20459;-88
2021/03/26 10:33:46;;;;;;;21.20;16.00;;;15.00;90.20;;;;;;5073384;23;21074;-88
2021/03/26 10:35:59;;;;;;;19.40;15.70;;;15.10;91.00;;;;;;5073351;23;20459;-86
2021/03/26 10:38:10;;;;;;;18.13;13.90;;;15.50;90.40;;;;;;5073030;23;20938;-88
2021/03/26 10:40:23;;;;;;;22.30;14.93;;;15.90;89.40;;;;;;5072291;23;20455;-88
2021/03/26 10:42:39;;;;;;;18.10;15.07;;;16.10;88.60;;;;;;5073105;23;20566;-88
2021/03/26 10:45:03;;;;;;;20.63;16.13;;;16.00;88.50;;;;;;5073327;23;20443;-87
2021/03/26 10:47:18;;;;;;;18.37;15.23;;;15.50;89.10;;;;;;5073268;23;20502;-88
2021/03/26 10:49:26;;;;;;;19.80;15.30;;;15.00;90.00;;;;;;5073044;23;20458;-88
2021/03/26 10:51:40;;;;;;;22.83;13.63;;;14.90;91.10;;;;;;5073472;23;20502;-88
2021/03/26 10:53:49;;;;;;;21.40;15.50;;;15.10;89.60;;;;;;5073308;23;20783;-88
2021/03/26 10:56:07;;;;;;;19.03;13.10;;;14.90;90.70;;;;;;5073125;23;20494;-88
2021/03/26 10:58:23;;;;;;;14.33;11.07;;;14.80;89.10;;;;;;5072921;23;20483;-88
2021/03/26 11:00:32;;;;;;;20.20;12.30;;;14.90;88.20;;;;;;5072894;23;20518;-87
2021/03/26 11:02:56;;;;;;;19.00;12.03;;;14.60;88.50;;;;;;5084051;23;21003;-88
2021/03/26 11:05:08;;;;;;;14.67;12.83;;;14.60;88.90;;;;;;5074006;23;20448;-89
2021/03/26 11:07:16;;;;;;;17.03;12.03;;;14.70;88.50;;;;;;5073198;23;21228;-88
2021/03/26 11:09:21;;;;;;;15.03;11.90;;;14.60;88.40;;;;;;5072433;23;20451;-88
2021/03/26 11:11:40;;;;;;;16.60;11.73;;;14.60;88.80;;;;;;5072935;23;20836;-88
2021/03/26 11:14:24;;;;;;;16.07;12.60;;;14.70;89.10;;;;;;5073215;23;20452;-87
2021/03/26 11:16:34;;;;;;;16.30;12.10;;;14.70;89.10;;;;;;5075712;23;20455;-87
2021/03/26 11:18:41;;;;;;;18.20;12.80;;;14.60;88.80;;;;;;5073694;23;20612;-89